Time;durP1;ratioP1;P1;durP2;ratioP2;P2;SDS_P1;SDS_P2;PMS_P1;PMS_P2;Temp;Humidity;BMP_temperature;BMP_pressure;BME280_temperature;BME280_humidity;BME280_pressure;Samples;Min_cycle;Max_cycle;Signal;HPM_P1;HPM_P2
2022/12/30 00:03:12;;;;;;;;;;;16.20;74.60;;;;;;5070619;28;19927;-90
2022/12/30 00:05:38;;;;;;;;;;;16.20;75.00;;;;;;5055721;28;19912;-89
2022/12/30 00:08:45;;;;;;;;;;;16.20;75.20;;;;;;5057624;28;19916;-89
2022/12/30 00:10:49;;;;;;;;;;;16.10;75.40;;;;;;5074453;28;19916;-89
2022/12/30 00:35:18;;;;;;;;;;;15.80;77.50;;;;;;5076618;28;19918;-90
2022/12/30 00:37:43;;;;;;;;;;;15.70;77.80;;;;;;5075371;28;19908;-90
2022/12/30 00:40:10;;;;;;;;;;;15.70;77.90;;;;;;5056020;28;19912;-89
2022/12/30 00:45:21;;;;;;;;;;;15.70;78.30;;;;;;5073706;28;19919;-89
2022/12/30 00:47:47;;;;;;;;;;;15.60;78.50;;;;;;5057354;28;20012;-90
2022/12/30 00:58:27;;;;;;;;;;;15.50;79.30;;;;;;5077135;28;19919;-89
2022/12/30 01:00:53;;;;;;;;;;;15.40;79.50;;;;;;5060464;28;19909;-89
2022/12/30 01:03:19;;;;;;;;;;;15.40;79.70;;;;;;5077101;28;19921;-89
2022/12/30 01:05:44;;;;;;;;;;;15.40;79.80;;;;;;5059145;28;19917;-89
2022/12/30 01:08:10;;;;;;;;;;;15.40;79.90;;;;;;5075691;28;19924;-89
2022/12/30 01:10:37;;;;;;;;;;;15.40;80.10;;;;;;5075989;28;20191;-89
2022/12/30 01:13:03;;;;;;;;;;;15.40;80.90;;;;;;5058220;28;19919;-90
2022/12/30 01:15:29;;;;;;;;;;;15.30;80.40;;;;;;5075129;28;19908;-89
2022/12/30 01:17:54;;;;;;;;;;;15.30;80.50;;;;;;5057597;28;19908;-89
2022/12/30 01:20:20;;;;;;;;;;;15.30;80.70;;;;;;5058367;28;20059;-89
2022/12/30 01:22:45;;;;;;;;;;;15.30;80.70;;;;;;5057727;28;19909;-89
2022/12/30 01:25:11;;;;;;;;;;;15.30;80.70;;;;;;5056656;28;19908;-89
2022/12/30 01:27:37;;;;;;;;;;;15.30;80.80;;;;;;5057956;28;19961;-90
2022/12/30 01:30:03;;;;;;;;;;;15.20;80.80;;;;;;5057665;28;19983;-89
2022/12/30 01:32:30;;;;;;;;;;;15.20;81.00;;;;;;5057370;28;19917;-89
2022/12/30 01:34:56;;;;;;;;;;;15.20;81.10;;;;;;5057339;28;19909;-89
2022/12/30 01:37:22;;;;;;;;;;;15.10;81.10;;;;;;5056382;28;19963;-89
2022/12/30 01:39:48;;;;;;;;;;;15.10;81.30;;;;;;5056831;28;19991;-89
2022/12/30 01:42:22;;;;;;;;;;;15.10;81.30;;;;;;5057055;28;19948;-89
2022/12/30 01:44:47;;;;;;;;;;;15.10;81.40;;;;;;5057076;28;20007;-89
2022/12/30 01:47:31;;;;;;;;;;;15.10;81.40;;;;;;5073430;28;19995;-89
2022/12/30 01:50:13;;;;;;;;;;;15.10;81.60;;;;;;5056671;28;19912;-89
2022/12/30 01:52:42;;;;;;;;;;;15.00;81.60;;;;;;5055334;28;20167;-89
2022/12/30 01:55:14;;;;;;;;;;;15.00;81.70;;;;;;5056357;28;20294;-90
2022/12/30 01:57:42;;;;;;;;;;;15.00;81.70;;;;;;5056707;28;20259;-90
2022/12/30 02:00:08;;;;;;;;;;;15.00;81.80;;;;;;5056596;28;19919;-90
2022/12/30 02:02:34;;;;;;;;;;;15.00;81.90;;;;;;5057062;28;20190;-90
2022/12/30 02:05:01;;;;;;;;;;;15.00;82.00;;;;;;5057011;28;20279;-90
2022/12/30 02:07:38;;;;;;;;;;;15.00;82.00;;;;;;5056981;28;20155;-89
2022/12/30 02:10:05;;;;;;;;;;;15.00;82.00;;;;;;5056374;28;20015;-89
2022/12/30 02:12:31;;;;;;;;;;;14.90;82.10;;;;;;5056418;28;20279;-89
2022/12/30 02:14:57;;;;;;;;;;;14.90;82.10;;;;;;5056410;28;19959;-90
2022/12/30 02:17:34;;;;;;;;;;;14.90;82.10;;;;;;5073107;28;19908;-89
2022/12/30 02:20:09;;;;;;;;;;;14.90;82.10;;;;;;5055363;28;19909;-89
2022/12/30 02:22:44;;;;;;;;;;;14.90;82.10;;;;;;5053752;28;19909;-90
2022/12/30 02:25:16;;;;;;;;;;;14.90;82.20;;;;;;5054360;28;20259;-89
2022/12/30 02:28:00;;;;;;;;;;;14.80;82.30;;;;;;5054239;28;20025;-89
2022/12/30 02:30:35;;;;;;;;;;;14.90;82.40;;;;;;5055464;28;20281;-89
2022/12/30 02:33:19;;;;;;;;;;;14.80;82.20;;;;;;5055099;28;19958;-90
2022/12/30 02:36:14;;;;;;;;;;;14.80;82.10;;;;;;5055698;28;19909;-90
2022/12/30 02:38:50;;;;;;;;;;;14.80;82.40;;;;;;5040015;28;19908;-90
2022/12/30 02:46:56;;;;;;;;;;;14.70;82.60;;;;;;5075016;28;19915;-89
2022/12/30 02:49:23;;;;;;;;;;;14.70;82.70;;;;;;5057806;28;20286;-90
2022/12/30 02:54:33;;;;;;;;;;;14.70;82.70;;;;;;5037152;28;19935;-90
2022/12/30 02:56:59;;;;;;;;;;;14.70;82.70;;;;;;5054869;28;20225;-90
2022/12/30 03:05:17;;;;;;;;;;;14.70;82.80;;;;;;5031306;28;19913;-90
2022/12/30 03:08:09;;;;;;;;;;;14.70;82.80;;;;;;5056741;28;20007;-89
2022/12/30 03:13:34;;;;;;;;;;;14.70;83.00;;;;;;5074842;28;19928;-90
2022/12/30 03:16:02;;;;;;;;;;;14.60;83.00;;;;;;5056809;28;19916;-89
2022/12/30 03:18:28;;;;;;;;;;;14.60;83.00;;;;;;5056781;28;20174;-89
2022/12/30 03:20:54;;;;;;;;;;;14.60;82.90;;;;;;5057755;28;19919;-90
2022/12/30 03:28:51;;;;;;;;;;;14.60;83.20;;;;;;5073889;28;19942;-89
2022/12/30 03:31:18;;;;;;;;;;;14.50;83.10;;;;;;5057055;28;19908;-89
2022/12/30 03:33:44;;;;;;;;;;;14.50;83.10;;;;;;5055713;28;19909;-88
2022/12/30 03:36:09;;;;;;;;;;;14.50;83.10;;;;;;5056170;28;19919;-90
2022/12/30 03:38:38;;;;;;;;;;;14.50;83.10;;;;;;5073209;28;19909;-90
2022/12/30 03:41:06;;;;;;;;;;;14.50;83.20;;;;;;5057522;28;20241;-89
2022/12/30 03:43:32;;;;;;;;;;;14.50;83.20;;;;;;5059213;28;19909;-89
2022/12/30 03:45:58;;;;;;;;;;;14.40;83.00;;;;;;5059782;28;19955;-89
2022/12/30 03:48:23;;;;;;;;;;;14.40;83.20;;;;;;5058896;28;19958;-90
2022/12/30 03:50:49;;;;;;;;;;;14.40;83.20;;;;;;5059001;28;20191;-89
2022/12/30 03:53:15;;;;;;;;;;;14.40;83.20;;;;;;5058792;28;19909;-89
2022/12/30 03:55:40;;;;;;;;;;;14.40;83.80;;;;;;5077118;28;20244;-89
2022/12/30 03:58:06;;;;;;;;;;;14.40;83.20;;;;;;5061061;28;19912;-89
2022/12/30 04:00:32;;;;;;;;;;;14.40;83.10;;;;;;5061457;28;20404;-90
2022/12/30 04:02:57;;;;;;;;;;;14.40;83.20;;;;;;5078268;28;19924;-90
2022/12/30 04:05:23;;;;;;;;;;;14.40;83.00;;;;;;5061551;28;19909;-90
2022/12/30 04:07:48;;;;;;;;;;;14.40;83.20;;;;;;5061929;28;20003;-90
2022/12/30 04:10:14;;;;;;;;;;;14.30;83.10;;;;;;5061977;28;20004;-89
2022/12/30 04:12:40;;;;;;;;;;;14.30;83.10;;;;;;5060423;28;20022;-89
2022/12/30 04:15:06;;;;;;;;;;;14.30;83.10;;;;;;5058988;28;20049;-90
2022/12/30 04:17:32;;;;;;;;;;;14.30;83.10;;;;;;5059047;28;19931;-89
2022/12/30 04:19:57;;;;;;;;;;;14.30;83.20;;;;;;5059890;28;19908;-89
2022/12/30 04:22:23;;;;;;;;;;;14.30;83.20;;;;;;5077822;28;19916;-89
2022/12/30 04:24:49;;;;;;;;;;;14.30;83.20;;;;;;5060252;28;19909;-89
2022/12/30 04:27:14;;;;;;;;;;;14.30;83.20;;;;;;5058970;28;20028;-89
2022/12/30 04:29:40;;;;;;;;;;;14.20;83.20;;;;;;5058050;28;19923;-90
2022/12/30 04:32:05;;;;;;;;;;;14.20;83.20;;;;;;5058347;28;19909;-89
2022/12/30 04:34:31;;;;;;;;;;;14.20;83.30;;;;;;5057791;28;19952;-89
2022/12/30 04:36:57;;;;;;;;;;;14.20;83.40;;;;;;5057438;28;19908;-90
2022/12/30 04:39:22;;;;;;;;;;;14.20;83.40;;;;;;5058153;28;20201;-89
2022/12/30 04:41:48;;;;;;;;;;;14.20;83.40;;;;;;5058024;28;19916;-90
2022/12/30 04:44:14;;;;;;;;;;;14.20;83.30;;;;;;5058039;28;19908;-89
2022/12/30 04:46:39;;;;;;;;;;;14.20;83.40;;;;;;5075706;28;19908;-89
2022/12/30 04:49:05;;;;;;;;;;;14.10;83.20;;;;;;5059053;28;19923;-89
2022/12/30 04:51:30;;;;;;;;;;;14.10;83.20;;;;;;5059026;28;19908;-89
2022/12/30 04:53:56;;;;;;;;;;;14.10;83.30;;;;;;5059530;28;19919;-90
2022/12/30 04:56:22;;;;;;;;;;;14.10;83.30;;;;;;5057244;28;19912;-90
2022/12/30 04:58:47;;;;;;;;;;;14.10;83.40;;;;;;5056541;28;19909;-90
2022/12/30 05:01:13;;;;;;;;;;;14.10;83.40;;;;;;5056691;28;19909;-89
2022/12/30 05:03:38;;;;;;;;;;;14.10;83.50;;;;;;5056979;28;19927;-90
2022/12/30 05:06:04;;;;;;;;;;;14.10;83.40;;;;;;5055608;28;19931;-89
2022/12/30 05:08:30;;;;;;;;;;;14.00;83.50;;;;;;5056902;28;20015;-89
2022/12/30 05:10:55;;;;;;;;;;;14.00;83.50;;;;;;5075216;28;19915;-90
2022/12/30 05:13:21;;;;;;;;;;;14.00;83.60;;;;;;5058905;28;19908;-89
2022/12/30 05:15:46;;;;;;;;;;;14.00;83.60;;;;;;5057081;28;19970;-90
2022/12/30 05:18:12;;;;;;;;;;;14.00;83.70;;;;;;5055424;28;19919;-89
2022/12/30 05:20:38;;;;;;;;;;;14.00;83.80;;;;;;5056204;28;19908;-89
2022/12/30 05:23:03;;;;;;;;;;;13.90;83.80;;;;;;5056586;28;19915;-89
2022/12/30 05:28:13;;;;;;;;;;;13.90;83.90;;;;;;5074662;28;19923;-90
2022/12/30 05:30:39;;;;;;;;;;;13.90;84.10;;;;;;5057952;28;19908;-90
2022/12/30 05:33:04;;;;;;;;;;;13.80;84.20;;;;;;5055614;28;20249;-89
2022/12/30 05:35:30;;;;;;;;;;;13.80;84.30;;;;;;5056111;28;20181;-89
2022/12/30 05:37:55;;;;;;;;;;;14.20;83.10;;;;;;5056206;28;20291;-89
2022/12/30 05:40:21;;;;;;;;;;;15.40;75.70;;;;;;5056637;28;19970;-89
2022/12/30 05:42:47;;;;;;;;;;;16.00;71.40;;;;;;5056562;28;19958;-90
2022/12/30 05:45:12;;;;;;;;;;;16.30;68.50;;;;;;5056811;28;20254;-90
2022/12/30 05:47:38;;;;;;;;;;;16.60;66.80;;;;;;5058031;28;19916;-89
2022/12/30 05:50:04;;;;;;;;;;;16.80;65.00;;;;;;5057961;28;19912;-89
2022/12/30 05:52:30;;;;;;;;;;;17.10;63.50;;;;;;5056932;28;19948;-90
2022/12/30 05:54:56;;;;;;;;;;;17.30;62.20;;;;;;5058589;28;19966;-89
2022/12/30 05:57:21;;;;;;;;;;;17.50;61.40;;;;;;5058320;28;19920;-89
2022/12/30 05:59:47;;;;;;;;;;;17.60;60.70;;;;;;5057362;28;19944;-90
2022/12/30 06:02:12;;;;;;;;;;;17.70;60.10;;;;;;5055883;28;19916;-89
2022/12/30 06:04:38;;;;;;;;;;;17.80;59.50;;;;;;5056367;28;19915;-90
2022/12/30 06:07:03;;;;;;;;;;;18.00;59.10;;;;;;5057289;28;20173;-89
2022/12/30 06:09:29;;;;;;;;;;;18.10;58.70;;;;;;5056533;28;20150;-90
2022/12/30 06:11:55;;;;;;;;;;;18.20;58.50;;;;;;5057109;28;19909;-88
2022/12/30 06:14:22;;;;;;;;;;;18.20;58.40;;;;;;5055400;28;20164;-89
2022/12/30 06:16:47;;;;;;;;;;;18.20;58.30;;;;;;5053740;28;19908;-89
2022/12/30 06:19:13;;;;;;;;;;;18.30;58.20;;;;;;5070735;28;19973;-89
2022/12/30 06:21:39;;;;;;;;;;;18.30;57.90;;;;;;5052465;28;19916;-90
2022/12/30 06:24:05;;;;;;;;;;;18.40;57.80;;;;;;5054250;28;20286;-90
2022/12/30 06:26:30;;;;;;;;;;;18.40;57.70;;;;;;5053980;28;20285;-90
2022/12/30 06:28:56;;;;;;;;;;;18.40;57.70;;;;;;5053337;28;20089;-90
2022/12/30 06:31:22;;;;;;;;;;;18.30;57.70;;;;;;5054349;28;19976;-90
2022/12/30 06:33:47;;;;;;;;;;;18.10;57.80;;;;;;5052875;28;19959;-89
2022/12/30 06:36:13;;;;;;;;;;;18.00;58.10;;;;;;5053376;28;19908;-90
2022/12/30 06:38:39;;;;;;;;;;;17.90;58.30;;;;;;5052515;28;19980;-89
2022/12/30 06:41:05;;;;;;;;;;;17.80;58.50;;;;;;5054063;28;20006;-90
2022/12/30 06:43:30;;;;;;;;;;;17.70;58.90;;;;;;5052824;28;19909;-90
2022/12/30 06:45:56;;;;;;;;;;;17.50;59.30;;;;;;5053891;28;19989;-89
2022/12/30 06:48:22;;;;;;;;;;;17.30;59.50;;;;;;5054400;28;19967;-90
2022/12/30 06:50:47;;;;;;;;;;;17.20;60.10;;;;;;5053808;28;19913;-89
2022/12/30 06:53:13;;;;;;;;;;;17.10;60.60;;;;;;5054122;28;19909;-90
2022/12/30 06:55:38;;;;;;;;;;;16.90;61.30;;;;;;5054883;28;19920;-90
2022/12/30 06:58:05;;;;;;;;;;;16.80;61.90;;;;;;5055858;28;20369;-90
2022/12/30 07:00:30;;;;;;;;;;;16.70;62.20;;;;;;5055819;28;19908;-90
2022/12/30 07:02:56;;;;;;;;;;;16.60;62.90;;;;;;5053901;28;19969;-89
2022/12/30 07:05:22;;;;;;;;;;;16.50;63.30;;;;;;5055081;28;20011;-90
2022/12/30 07:07:48;;;;;;;;;;;16.30;63.90;;;;;;5055962;28;20016;-90
2022/12/30 07:10:13;;;;;;;;;;;16.20;64.60;;;;;;5052724;28;20155;-90
2022/12/30 07:12:39;;;;;;;;;;;16.20;65.90;;;;;;5054830;28;20207;-90
2022/12/30 07:15:06;;;;;;;;;;;16.10;65.40;;;;;;5057345;28;19951;-90
2022/12/30 07:17:32;;;;;;;;;;;16.20;65.30;;;;;;5057923;28;19915;-89
2022/12/30 07:19:57;;;;;;;;;;;16.30;64.40;;;;;;5057663;28;19913;-90
2022/12/30 07:22:23;;;;;;;;;;;16.60;63.00;;;;;;5059155;28;19971;-90
2022/12/30 07:24:48;;;;;;;;;;;16.90;61.10;;;;;;5058324;28;20486;-91
2022/12/30 07:27:14;;;;;;;;;;;17.30;59.70;;;;;;5058360;28;20022;-90
2022/12/30 07:29:40;;;;;;;;;;;17.50;58.90;;;;;;5076844;28;20006;-90
2022/12/30 07:32:06;;;;;;;;;;;17.80;58.20;;;;;;5058105;28;20211;-90
2022/12/30 07:34:34;;;;;;;;;;;17.90;57.80;;;;;;5058984;28;19952;-90
2022/12/30 07:37:00;;;;;;;;;;;18.00;57.50;;;;;;5058267;28;19908;-89
2022/12/30 07:39:26;;;;;;;;;;;18.10;57.10;;;;;;5057058;28;19908;-90
2022/12/30 07:41:52;;;;;;;;;;;18.20;56.80;;;;;;5056268;28;19909;-90
2022/12/30 07:44:17;;;;;;;;;;;18.20;56.70;;;;;;5057596;28;19915;-89
2022/12/30 07:46:43;;;;;;;;;;;18.20;56.60;;;;;;5056239;28;19908;-90
2022/12/30 07:49:09;;;;;;;;;;;18.20;56.50;;;;;;5055779;28;19913;-89
2022/12/30 07:51:34;;;;;;;;;;;18.20;56.50;;;;;;5054920;28;19970;-91
2022/12/30 07:54:00;;;;;;;;;;;18.20;56.50;;;;;;5073756;28;20064;-89
2022/12/30 07:56:25;;;;;;;;;;;18.10;56.60;;;;;;5052536;28;19970;-90
2022/12/30 07:58:54;;;;;;;;;;;18.00;56.60;;;;;;5051457;28;19909;-89
2022/12/30 08:01:20;;;;;;;;;;;18.00;56.70;;;;;;5052904;28;19908;-90
2022/12/30 08:03:46;;;;;;;;;;;17.90;56.90;;;;;;5053932;28;20193;-90
2022/12/30 08:06:13;;;;;;;;;;;17.80;57.00;;;;;;5052757;28;19909;-90
2022/12/30 08:08:39;;;;;;;;;;;17.70;57.30;;;;;;5052179;28;19912;-90
2022/12/30 08:11:05;;;;;;;;;;;17.60;57.50;;;;;;5055503;28;19948;-90
2022/12/30 08:13:32;;;;;;;;;;;17.50;57.60;;;;;;5055678;28;20007;-90
2022/12/30 08:15:58;;;;;;;;;;;17.50;57.80;;;;;;5055971;28;20175;-91
2022/12/30 08:18:24;;;;;;;;;;;17.40;57.80;;;;;;5053782;28;19908;-90
2022/12/30 08:20:49;;;;;;;;;;;17.30;57.90;;;;;;5053137;28;20273;-90
2022/12/30 08:23:15;;;;;;;;;;;17.30;58.20;;;;;;5052054;28;19997;-90
2022/12/30 08:25:40;;;;;;;;;;;17.30;58.10;;;;;;5051527;28;20249;-90
2022/12/30 08:28:06;;;;;;;;;;;17.30;58.10;;;;;;5053078;28;19909;-90
2022/12/30 08:30:32;;;;;;;;;;;17.30;58.20;;;;;;5053485;28;19923;-89
2022/12/30 08:32:57;;;;;;;;;;;17.20;58.20;;;;;;5052334;28;19920;-90
2022/12/30 08:35:23;;;;;;;;;;;17.20;58.10;;;;;;5053455;28;19909;-89
2022/12/30 08:37:49;;;;;;;;;;;17.20;58.10;;;;;;5053346;28;20202;-90
2022/12/30 08:40:15;;;;;;;;;;;17.20;58.10;;;;;;5054793;28;20198;-90
2022/12/30 08:42:40;;;;;;;;;;;17.30;58.00;;;;;;5053595;28;20012;-89
2022/12/30 08:45:07;;;;;;;;;;;17.40;57.70;;;;;;5054887;28;19999;-90
2022/12/30 08:47:33;;;;;;;;;;;17.50;57.40;;;;;;5054954;28;20175;-90
2022/12/30 08:49:59;;;;;;;;;;;17.70;57.10;;;;;;5054314;28;19913;-90
2022/12/30 08:52:27;;;;;;;;;;;17.80;56.80;;;;;;5053752;28;20178;-90
2022/12/30 08:54:52;;;;;;;;;;;17.90;56.50;;;;;;5054241;28;19960;-90
2022/12/30 08:57:18;;;;;;;;;;;17.90;56.40;;;;;;5053699;28;19908;-90
2022/12/30 08:59:44;;;;;;;;;;;17.90;56.30;;;;;;5054212;28;19908;-90
2022/12/30 09:02:13;;;;;;;;;;;18.00;56.10;;;;;;5052880;28;20228;-90
2022/12/30 09:04:38;;;;;;;;;;;18.00;55.90;;;;;;5052873;28;20015;-90
2022/12/30 09:07:04;;;;;;;;;;;18.10;55.80;;;;;;5052861;28;20362;-90
2022/12/30 09:09:30;;;;;;;;;;;18.10;55.50;;;;;;5051352;28;20361;-90
2022/12/30 09:11:56;;;;;;;;;;;18.20;55.50;;;;;;5051779;28;20065;-90
2022/12/30 09:14:22;;;;;;;;;;;18.10;55.50;;;;;;5053944;28;19965;-90
2022/12/30 09:16:48;;;;;;;;;;;18.10;55.50;;;;;;5053350;28;19935;-90
2022/12/30 09:19:14;;;;;;;;;;;18.10;55.50;;;;;;5052980;28;19923;-90
2022/12/30 09:21:39;;;;;;;;;;;18.10;55.60;;;;;;5054297;28;20066;-90
2022/12/30 09:24:05;;;;;;;;;;;18.10;55.50;;;;;;5053950;28;19923;-90
2022/12/30 09:26:31;;;;;;;;;;;18.20;55.50;;;;;;5053813;28;19908;-89
2022/12/30 09:28:57;;;;;;;;;;;18.30;55.30;;;;;;5053262;28;19912;-90
2022/12/30 09:31:24;;;;;;;;;;;18.40;55.20;;;;;;5055508;28;20077;-91
2022/12/30 09:33:50;;;;;;;;;;;18.40;55.20;;;;;;5077231;28;19905;-91
2022/12/30 09:36:17;;;;;;;;;;;18.40;55.10;;;;;;5056504;28;19908;-91
2022/12/30 09:38:43;;;;;;;;;;;18.40;55.10;;;;;;5053764;28;19920;-92
2022/12/30 09:44:15;;;;;;;;;;;18.30;55.20;;;;;;5072838;28;19978;-92
2022/12/30 09:46:46;;;;;;;;;;;18.20;55.30;;;;;;5071115;28;20102;-91
2022/12/30 09:49:22;;;;;;;;;;;18.10;55.50;;;;;;5054248;28;20335;-91
2022/12/30 09:51:51;;;;;;;;;;;18.10;56.00;;;;;;5053721;28;19913;-91
2022/12/30 09:54:19;;;;;;;;;;;18.00;56.40;;;;;;5053235;28;19920;-92
2022/12/30 09:56:46;;;;;;;;;;;17.90;57.20;;;;;;5052690;28;19908;-91
2022/12/30 09:59:28;;;;;;;;;;;17.90;57.10;;;;;;5052937;28;19969;-91
2022/12/30 10:01:59;;;;;;;;;;;17.90;57.30;;;;;;5053071;28;19912;-91
2022/12/30 10:04:35;;;;;;;;;;;17.90;57.50;;;;;;5053011;28;19919;-91
2022/12/30 10:07:04;;;;;;;;;;;17.80;58.30;;;;;;5050054;28;19909;-91
2022/12/30 10:09:49;;;;;;;;;;;17.80;58.20;;;;;;5049877;28;19912;-92
2022/12/30 10:12:27;;;;;;;;;;;17.70;58.40;;;;;;5049988;28;19919;-91
2022/12/30 10:15:12;;;;;;;;;;;17.70;58.60;;;;;;5051554;28;20015;-92
2022/12/30 10:17:40;;;;;;;;;;;17.70;58.90;;;;;;5049214;28;19909;-91
2022/12/30 10:20:25;;;;;;;;;;;17.70;59.00;;;;;;5052824;28;19912;-90
2022/12/30 10:22:50;;;;;;;;;;;17.80;59.00;;;;;;5052165;28;20194;-92
2022/12/30 10:25:21;;;;;;;;;;;17.90;58.80;;;;;;5055059;28;20289;-91
2022/12/30 10:27:48;;;;;;;;;;;18.00;58.70;;;;;;5053221;28;19908;-91
2022/12/30 10:30:21;;;;;;;;;;;18.10;58.50;;;;;;5053478;28;19913;-91
2022/12/30 10:32:55;;;;;;;;;;;18.20;58.40;;;;;;5053240;28;20229;-91
2022/12/30 10:35:22;;;;;;;;;;;18.30;58.20;;;;;;5051955;28;19919;-91
2022/12/30 10:37:49;;;;;;;;;;;18.40;57.90;;;;;;5051122;28;20214;-91
2022/12/30 10:40:15;;;;;;;;;;;18.30;57.70;;;;;;5051730;28;19969;-91
2022/12/30 10:42:59;;;;;;;;;;;18.30;57.80;;;;;;5049614;28;19969;-89
2022/12/30 10:45:34;;;;;;;;;;;18.20;57.80;;;;;;5049611;28;19969;-89
2022/12/30 10:48:38;;;;;;;;;;;18.10;57.90;;;;;;5050076;28;19908;-89
2022/12/30 10:51:05;;;;;;;;;;;18.00;58.20;;;;;;4969371;28;19922;-89
2022/12/30 10:53:31;;;;;;;;;;;17.90;58.30;;;;;;4984142;28;20024;-89
2022/12/30 10:55:57;;;;;;;;;;;17.80;58.40;;;;;;5022834;28;19952;-89
2022/12/30 10:58:33;;;;;;;;;;;17.80;58.60;;;;;;5048377;28;19963;-89
2022/12/30 11:00:59;;;;;;;;;;;17.70;58.60;;;;;;5049336;28;19908;-89
2022/12/30 11:03:31;;;;;;;;;;;17.80;58.40;;;;;;5046511;28;19916;-89
2022/12/30 11:05:58;;;;;;;;;;;17.90;58.30;;;;;;5048003;28;20210;-88
2022/12/30 11:08:23;;;;;;;;;;;18.10;58.00;;;;;;5048707;28;20136;-89
2022/12/30 11:11:01;;;;;;;;;;;18.30;57.60;;;;;;5049837;28;20365;-89
2022/12/30 11:16:11;;;;;;;;;;;18.70;56.60;;;;;;5067456;28;20328;-89
2022/12/30 11:18:37;;;;;;;;;;;18.90;56.20;;;;;;5048157;28;19908;-89
2022/12/30 11:21:06;;;;;;;;;;;19.00;55.90;;;;;;5047849;28;19973;-89
2022/12/30 11:23:33;;;;;;;;;;;19.00;55.70;;;;;;5048823;28;19955;-90
2022/12/30 11:26:01;;;;;;;;;;;19.10;55.60;;;;;;5049075;28;19909;-89
2022/12/30 11:28:28;;;;;;;;;;;19.00;55.60;;;;;;5047795;28;19919;-90
2022/12/30 11:31:07;;;;;;;;;;;18.90;55.80;;;;;;5047129;28;20264;-89
2022/12/30 11:33:34;;;;;;;;;;;18.90;56.00;;;;;;5046658;28;20236;-89
2022/12/30 11:36:20;;;;;;;;;;;18.80;56.40;;;;;;5048160;28;20374;-89
2022/12/30 11:38:47;;;;;;;;;;;18.60;56.80;;;;;;5048105;28;19909;-89
2022/12/30 11:41:16;;;;;;;;;;;18.50;57.20;;;;;;5048249;28;19944;-89
2022/12/30 11:43:43;;;;;;;;;;;18.40;57.50;;;;;;5048346;28;19912;-88
2022/12/30 11:46:10;;;;;;;;;;;18.30;57.90;;;;;;5049665;28;20007;-89
2022/12/30 11:48:37;;;;;;;;;;;18.10;58.10;;;;;;5050185;28;19952;-90
2022/12/30 11:51:14;;;;;;;;;;;18.10;58.30;;;;;;5048481;28;19912;-90
2022/12/30 11:53:40;;;;;;;;;;;17.90;58.60;;;;;;5048077;28;19908;-90
2022/12/30 11:56:06;;;;;;;;;;;17.80;59.10;;;;;;5048791;28;19912;-89
2022/12/30 11:58:32;;;;;;;;;;;17.70;59.60;;;;;;5047647;28;19997;-89
2022/12/30 12:01:01;;;;;;;;;;;17.60;59.90;;;;;;5048494;28;19908;-89
2022/12/30 12:03:28;;;;;;;;;;;17.50;60.40;;;;;;5050701;28;20159;-90
2022/12/30 12:06:05;;;;;;;;;;;17.40;60.90;;;;;;5052097;28;19923;-89
2022/12/30 12:08:33;;;;;;;;;;;17.40;61.40;;;;;;5051062;28;19985;-89
2022/12/30 12:11:00;;;;;;;;;;;17.30;63.40;;;;;;5051498;28;19924;-89
2022/12/30 12:13:39;;;;;;;;;;;17.30;67.10;;;;;;5052526;28;20243;-89
2022/12/30 12:16:05;;;;;;;;;;;17.20;69.90;;;;;;5051818;28;19909;-90
2022/12/30 12:18:40;;;;;;;;;;;17.20;73.80;;;;;;5050827;28;20273;-89
2022/12/30 12:21:17;;;;;;;;;;;17.20;77.60;;;;;;5068242;28;19919;-90
2022/12/30 12:23:43;;;;;;;;;;;17.20;81.40;;;;;;5051044;28;20049;-89
2022/12/30 12:26:18;;;;;;;;;;;17.20;82.70;;;;;;5052087;28;20026;-89
2022/12/30 12:28:44;;;;;;;;;;;17.20;83.10;;;;;;5050997;28;20202;-90
2022/12/30 12:31:28;;;;;;;;;;;17.10;82.80;;;;;;5051013;28;20011;-90
2022/12/30 12:33:55;;;;;;;;;;;17.10;81.80;;;;;;5052875;28;20297;-90
2022/12/30 12:36:27;;;;;;;;;;;17.10;81.40;;;;;;5048067;28;19916;-89
2022/12/30 12:38:54;;;;;;;;;;;17.10;81.20;;;;;;5050850;28;20007;-90
2022/12/30 12:41:23;;;;;;;;;;;17.00;79.70;;;;;;5051565;28;19970;-90
2022/12/30 12:43:48;;;;;;;;;;;17.00;79.80;;;;;;5070246;28;19909;-90
2022/12/30 12:46:32;;;;;;;;;;;16.90;79.40;;;;;;5051773;28;19916;-89
2022/12/30 12:49:09;;;;;;;;;;;16.90;79.20;;;;;;5052339;28;19920;-89
2022/12/30 12:51:50;;;;;;;;;;;16.80;79.10;;;;;;5053585;28;20007;-90
2022/12/30 12:54:36;;;;;;;;;;;16.70;78.20;;;;;;5052254;28;19916;-90
2022/12/30 12:57:04;;;;;;;;;;;16.70;78.20;;;;;;5050922;28;20153;-90
2022/12/30 12:59:36;;;;;;;;;;;16.60;78.00;;;;;;5068369;28;20330;-90
2022/12/30 13:02:05;;;;;;;;;;;16.60;77.50;;;;;;5052852;28;19938;-89
2022/12/30 13:04:46;;;;;;;;;;;16.60;77.70;;;;;;5050344;28;20171;-89
2022/12/30 13:07:24;;;;;;;;;;;16.50;77.70;;;;;;5051095;28;19916;-90
2022/12/30 13:09:58;;;;;;;;;;;16.50;77.70;;;;;;5049981;28;19923;-90
2022/12/30 13:12:30;;;;;;;;;;;16.50;77.60;;;;;;5049728;28;20124;-90
2022/12/30 13:14:59;;;;;;;;;;;16.40;77.20;;;;;;5052079;28;19909;-90
2022/12/30 13:17:30;;;;;;;;;;;16.40;77.20;;;;;;5050635;28;19912;-90
2022/12/30 13:19:58;;;;;;;;;;;16.40;77.10;;;;;;5051575;28;20198;-89
2022/12/30 13:22:25;;;;;;;;;;;16.40;76.70;;;;;;5051509;28;19940;-90
2022/12/30 13:24:53;;;;;;;;;;;16.50;76.50;;;;;;5052078;28;19917;-91
2022/12/30 13:27:24;;;;;;;;;;;16.50;76.20;;;;;;5050702;28;19909;-90
2022/12/30 13:29:50;;;;;;;;;;;16.60;76.00;;;;;;5048427;28;19955;-90
2022/12/30 13:32:19;;;;;;;;;;;16.60;75.20;;;;;;5047429;28;19935;-90
2022/12/30 13:34:48;;;;;;;;;;;16.70;74.70;;;;;;5050198;28;20104;-90
2022/12/30 13:37:15;;;;;;;;;;;16.80;73.80;;;;;;5067090;28;20071;-90
2022/12/30 13:39:49;;;;;;;;;;;16.90;73.00;;;;;;5046313;28;20173;-91
2022/12/30 13:42:33;;;;;;;;;;;17.00;72.10;;;;;;5057339;28;19924;-91
2022/12/30 13:44:59;;;;;;;;;;;17.00;71.10;;;;;;5047371;28;19971;-90
2022/12/30 13:47:25;;;;;;;;;;;17.00;71.50;;;;;;5049305;28;20223;-92
2022/12/30 13:49:50;;;;;;;;;;;17.00;70.80;;;;;;5049012;28;19920;-91
2022/12/30 13:52:23;;;;;;;;;;;17.10;70.00;;;;;;5067542;28;19908;-91
2022/12/30 13:54:53;;;;;;;;;;;17.30;69.30;;;;;;5049295;28;20091;-92
2022/12/30 13:57:29;;;;;;;;;;;17.30;68.50;;;;;;5049705;28;19999;-92
2022/12/30 14:00:14;;;;;;;;;;;17.30;68.10;;;;;;5050399;28;19909;-92
2022/12/30 14:02:43;;;;;;;;;;;17.30;67.70;;;;;;5051685;28;19917;-92
2022/12/30 14:05:27;;;;;;;;;;;17.30;67.60;;;;;;5051624;28;19909;-93
2022/12/30 14:07:53;;;;;;;;;;;17.30;67.50;;;;;;5051688;28;19919;-92
2022/12/30 14:10:20;;;;;;;;;;;17.30;67.50;;;;;;5052052;28;20045;-92
2022/12/30 14:13:04;;;;;;;;;;;17.30;67.50;;;;;;5054628;28;20003;-92
2022/12/30 14:15:30;;;;;;;;;;;17.20;67.90;;;;;;5057105;28;19947;-93
2022/12/30 14:17:57;;;;;;;;;;;17.10;68.40;;;;;;5053979;28;19952;-92
2022/12/30 14:20:28;;;;;;;;;;;17.00;68.90;;;;;;5057156;28;19919;-93
2022/12/30 14:22:55;;;;;;;;;;;16.90;69.50;;;;;;5056239;28;19920;-92
2022/12/30 14:25:31;;;;;;;;;;;16.70;70.20;;;;;;5053329;28;19959;-92
2022/12/30 14:28:09;;;;;;;;;;;16.60;70.90;;;;;;5052845;28;20003;-91
2022/12/30 14:30:40;;;;;;;;;;;16.50;71.70;;;;;;5051326;28;19927;-92
2022/12/30 14:33:21;;;;;;;;;;;16.40;72.40;;;;;;5048013;28;20346;-92
2022/12/30 14:35:51;;;;;;;;;;;16.30;73.10;;;;;;5048851;28;19908;-91
2022/12/30 14:38:29;;;;;;;;;;;16.20;73.50;;;;;;5050023;28;19908;-92
2022/12/30 14:41:03;;;;;;;;;;;16.20;74.00;;;;;;5047902;28;19955;-92
2022/12/30 14:43:29;;;;;;;;;;;16.30;73.50;;;;;;5047819;28;20402;-91
2022/12/30 14:46:14;;;;;;;;;;;16.50;72.70;;;;;;5052673;28;19935;-92
2022/12/30 14:48:58;;;;;;;;;;;16.70;70.90;;;;;;5053883;28;19913;-91
2022/12/30 14:51:24;;;;;;;;;;;16.90;69.30;;;;;;5049994;28;19939;-92
2022/12/30 14:53:50;;;;;;;;;;;17.20;67.90;;;;;;5050870;28;20176;-92
2022/12/30 14:56:19;;;;;;;;;;;17.40;66.50;;;;;;5050755;28;19908;-91
2022/12/30 14:58:45;;;;;;;;;;;17.60;65.10;;;;;;5048040;28;19912;-91
2022/12/30 15:01:11;;;;;;;;;;;17.80;63.80;;;;;;5048176;28;19935;-91
2022/12/30 15:03:37;;;;;;;;;;;18.00;62.80;;;;;;5045366;28;19916;-92
2022/12/30 15:06:03;;;;;;;;;;;18.00;62.10;;;;;;5049198;28;19909;-92
2022/12/30 15:08:34;;;;;;;;;;;18.10;61.90;;;;;;5047668;28;20290;-92
2022/12/30 15:11:02;;;;;;;;;;;18.10;61.70;;;;;;5048978;28;20271;-92
2022/12/30 15:13:30;;;;;;;;;;;18.00;61.70;;;;;;5049975;28;20240;-92
2022/12/30 15:16:02;;;;;;;;;;;18.00;61.60;;;;;;5048328;28;19920;-92
2022/12/30 15:18:33;;;;;;;;;;;18.00;61.70;;;;;;5047437;28;20037;-92
2022/12/30 15:21:12;;;;;;;;;;;17.90;61.90;;;;;;5049939;28;20139;-89
2022/12/30 15:23:37;;;;;;;;;;;17.80;62.10;;;;;;5049837;28;20295;-92
2022/12/30 15:26:04;;;;;;;;;;;17.80;62.30;;;;;;5049982;28;19909;-92
2022/12/30 15:28:30;;;;;;;;;;;17.70;62.60;;;;;;5049964;28;19951;-92
2022/12/30 15:30:56;;;;;;;;;;;17.60;63.00;;;;;;5049486;28;19984;-91